sensor_id;sensor_type;location;lat;lon;timestamp;P1;durP1;ratioP1;P2;durP2;ratioP2
23304;SDS011;11821;51.456;8.844;2023-04-24T00:00:51;0.50;;;0.45;;
23304;SDS011;11821;51.456;8.844;2023-04-24T00:03:18;0.30;;;0.30;;
23304;SDS011;11821;51.456;8.844;2023-04-24T00:05:46;0.93;;;0.52;;
23304;SDS011;11821;51.456;8.844;2023-04-24T00:08:13;0.30;;;0.30;;
23304;SDS011;11821;51.456;8.844;2023-04-24T00:10:39;0.30;;;0.30;;
23304;SDS011;11821;51.456;8.844;2023-04-24T00:13:06;2.00;;;0.40;;
23304;SDS011;11821;51.456;8.844;2023-04-24T00:15:33;0.43;;;0.43;;
23304;SDS011;11821;51.456;8.844;2023-04-24T00:17:59;0.38;;;0.32;;
23304;SDS011;11821;51.456;8.844;2023-04-24T00:20:27;0.40;;;0.20;;
23304;SDS011;11821;51.456;8.844;2023-04-24T00:22:58;0.20;;;0.20;;
23304;SDS011;11821;51.456;8.844;2023-04-24T00:25:24;1.95;;;0.30;;
23304;SDS011;11821;51.456;8.844;2023-04-24T00:27:50;0.30;;;0.30;;
23304;SDS011;11821;51.456;8.844;2023-04-24T00:30:17;1.27;;;0.28;;
23304;SDS011;11821;51.456;8.844;2023-04-24T00:32:43;1.27;;;0.25;;
23304;SDS011;11821;51.456;8.844;2023-04-24T00:35:09;0.45;;;0.25;;
23304;SDS011;11821;51.456;8.844;2023-04-24T00:37:36;1.27;;;0.43;;
23304;SDS011;11821;51.456;8.844;2023-04-24T00:40:02;0.30;;;0.30;;
23304;SDS011;11821;51.456;8.844;2023-04-24T00:42:29;2.75;;;0.65;;
23304;SDS011;11821;51.456;8.844;2023-04-24T00:44:56;0.20;;;0.20;;
23304;SDS011;11821;51.456;8.844;2023-04-24T00:47:23;0.90;;;0.30;;
23304;SDS011;11821;51.456;8.844;2023-04-24T00:49:50;0.30;;;0.30;;
23304;SDS011;11821;51.456;8.844;2023-04-24T00:52:18;0.45;;;0.30;;
23304;SDS011;11821;51.456;8.844;2023-04-24T00:54:46;0.35;;;0.35;;
23304;SDS011;11821;51.456;8.844;2023-04-24T00:57:13;0.57;;;0.30;;
23304;SDS011;11821;51.456;8.844;2023-04-24T00:59:43;0.85;;;0.40;;
23304;SDS011;11821;51.456;8.844;2023-04-24T01:02:10;1.50;;;0.32;;
23304;SDS011;11821;51.456;8.844;2023-04-24T01:04:38;0.30;;;0.30;;
23304;SDS011;11821;51.456;8.844;2023-04-24T01:07:05;0.50;;;0.30;;
23304;SDS011;11821;51.456;8.844;2023-04-24T01:09:37;0.73;;;0.30;;
23304;SDS011;11821;51.456;8.844;2023-04-24T01:12:07;1.05;;;0.30;;
23304;SDS011;11821;51.456;8.844;2023-04-24T01:14:37;1.63;;;0.40;;
23304;SDS011;11821;51.456;8.844;2023-04-24T01:17:03;1.60;;;0.30;;
23304;SDS011;11821;51.456;8.844;2023-04-24T01:19:30;0.90;;;0.43;;
23304;SDS011;11821;51.456;8.844;2023-04-24T01:21:57;0.25;;;0.25;;
23304;SDS011;11821;51.456;8.844;2023-04-24T01:24:24;0.40;;;0.30;;
23304;SDS011;11821;51.456;8.844;2023-04-24T01:26:51;0.60;;;0.40;;
23304;SDS011;11821;51.456;8.844;2023-04-24T01:29:18;0.47;;;0.40;;
23304;SDS011;11821;51.456;8.844;2023-04-24T01:31:45;0.38;;;0.30;;
23304;SDS011;11821;51.456;8.844;2023-04-24T01:34:11;1.73;;;0.32;;
23304;SDS011;11821;51.456;8.844;2023-04-24T01:36:38;0.40;;;0.40;;
23304;SDS011;11821;51.456;8.844;2023-04-24T01:39:05;1.35;;;0.40;;
23304;SDS011;11821;51.456;8.844;2023-04-24T01:41:32;0.55;;;0.30;;
23304;SDS011;11821;51.456;8.844;2023-04-24T01:43:59;1.00;;;0.50;;
23304;SDS011;11821;51.456;8.844;2023-04-24T01:46:25;1.80;;;0.40;;
23304;SDS011;11821;51.456;8.844;2023-04-24T01:48:52;1.00;;;0.47;;
23304;SDS011;11821;51.456;8.844;2023-04-24T01:51:19;2.40;;;0.95;;
23304;SDS011;11821;51.456;8.844;2023-04-24T01:53:45;0.30;;;0.30;;
23304;SDS011;11821;51.456;8.844;2023-04-24T01:56:12;1.02;;;0.30;;
23304;SDS011;11821;51.456;8.844;2023-04-24T01:58:39;0.73;;;0.32;;
23304;SDS011;11821;51.456;8.844;2023-04-24T02:01:06;1.65;;;0.30;;
23304;SDS011;11821;51.456;8.844;2023-04-24T02:03:33;0.40;;;0.40;;
23304;SDS011;11821;51.456;8.844;2023-04-24T02:05:59;1.23;;;0.60;;
23304;SDS011;11821;51.456;8.844;2023-04-24T02:08:26;0.30;;;0.30;;
23304;SDS011;11821;51.456;8.844;2023-04-24T02:10:52;0.80;;;0.65;;
23304;SDS011;11821;51.456;8.844;2023-04-24T02:13:19;0.80;;;0.50;;
23304;SDS011;11821;51.456;8.844;2023-04-24T02:15:46;0.65;;;0.40;;
23304;SDS011;11821;51.456;8.844;2023-04-24T02:18:12;1.27;;;0.60;;
23304;SDS011;11821;51.456;8.844;2023-04-24T02:20:39;2.08;;;0.40;;
23304;SDS011;11821;51.456;8.844;2023-04-24T02:23:05;3.40;;;0.50;;
23304;SDS011;11821;51.456;8.844;2023-04-24T02:25:32;1.27;;;0.60;;
23304;SDS011;11821;51.456;8.844;2023-04-24T02:27:59;0.82;;;0.50;;
23304;SDS011;11821;51.456;8.844;2023-04-24T02:30:26;1.13;;;0.73;;
23304;SDS011;11821;51.456;8.844;2023-04-24T02:32:52;0.98;;;0.50;;
23304;SDS011;11821;51.456;8.844;2023-04-24T02:35:19;0.70;;;0.60;;
23304;SDS011;11821;51.456;8.844;2023-04-24T02:37:46;1.15;;;0.50;;
23304;SDS011;11821;51.456;8.844;2023-04-24T02:40:12;0.43;;;0.43;;
23304;SDS011;11821;51.456;8.844;2023-04-24T02:42:40;1.38;;;0.40;;
23304;SDS011;11821;51.456;8.844;2023-04-24T02:45:07;0.47;;;0.45;;
23304;SDS011;11821;51.456;8.844;2023-04-24T02:47:33;1.20;;;0.68;;
23304;SDS011;11821;51.456;8.844;2023-04-24T02:50:00;1.88;;;0.50;;
23304;SDS011;11821;51.456;8.844;2023-04-24T02:52:27;0.50;;;0.50;;
23304;SDS011;11821;51.456;8.844;2023-04-24T02:54:53;1.38;;;0.82;;
23304;SDS011;11821;51.456;8.844;2023-04-24T02:57:20;2.10;;;0.85;;
23304;SDS011;11821;51.456;8.844;2023-04-24T02:59:47;1.60;;;1.23;;
23304;SDS011;11821;51.456;8.844;2023-04-24T03:02:14;1.63;;;1.42;;
23304;SDS011;11821;51.456;8.844;2023-04-24T03:04:40;2.50;;;1.77;;
23304;SDS011;11821;51.456;8.844;2023-04-24T03:07:08;3.17;;;1.77;;
23304;SDS011;11821;51.456;8.844;2023-04-24T03:09:36;2.15;;;1.85;;
23304;SDS011;11821;51.456;8.844;2023-04-24T03:12:03;3.33;;;2.35;;
23304;SDS011;11821;51.456;8.844;2023-04-24T03:14:30;2.40;;;2.13;;
23304;SDS011;11821;51.456;8.844;2023-04-24T03:16:56;4.05;;;2.40;;
23304;SDS011;11821;51.456;8.844;2023-04-24T03:19:23;1.65;;;1.20;;
23304;SDS011;11821;51.456;8.844;2023-04-24T03:22:07;0.82;;;0.82;;
23304;SDS011;11821;51.456;8.844;2023-04-24T03:24:35;1.10;;;0.90;;
23304;SDS011;11821;51.456;8.844;2023-04-24T03:27:03;0.98;;;0.90;;
23304;SDS011;11821;51.456;8.844;2023-04-24T03:29:58;1.65;;;0.73;;
23304;SDS011;11821;51.456;8.844;2023-04-24T03:32:34;0.98;;;0.70;;
23304;SDS011;11821;51.456;8.844;2023-04-24T03:35:01;1.33;;;0.85;;
23304;SDS011;11821;51.456;8.844;2023-04-24T03:37:28;3.15;;;0.75;;
23304;SDS011;11821;51.456;8.844;2023-04-24T03:40:08;2.22;;;0.65;;
23304;SDS011;11821;51.456;8.844;2023-04-24T03:42:36;1.90;;;0.80;;
23304;SDS011;11821;51.456;8.844;2023-04-24T03:45:03;1.13;;;0.90;;
23304;SDS011;11821;51.456;8.844;2023-04-24T03:47:34;1.40;;;0.80;;
23304;SDS011;11821;51.456;8.844;2023-04-24T03:50:03;1.50;;;0.80;;
23304;SDS011;11821;51.456;8.844;2023-04-24T03:52:30;0.65;;;0.65;;
23304;SDS011;11821;51.456;8.844;2023-04-24T03:54:57;0.70;;;0.70;;
23304;SDS011;11821;51.456;8.844;2023-04-24T03:57:25;0.93;;;0.88;;
23304;SDS011;11821;51.456;8.844;2023-04-24T04:00:16;0.97;;;0.73;;
23304;SDS011;11821;51.456;8.844;2023-04-24T04:02:50;0.98;;;0.68;;
23304;SDS011;11821;51.456;8.844;2023-04-24T04:05:17;2.25;;;1.13;;
23304;SDS011;11821;51.456;8.844;2023-04-24T04:07:44;2.63;;;0.80;;
23304;SDS011;11821;51.456;8.844;2023-04-24T04:10:11;2.15;;;1.13;;
23304;SDS011;11821;51.456;8.844;2023-04-24T04:12:38;0.93;;;0.93;;
23304;SDS011;11821;51.456;8.844;2023-04-24T04:15:04;0.82;;;0.80;;
23304;SDS011;11821;51.456;8.844;2023-04-24T04:17:32;1.92;;;0.90;;
23304;SDS011;11821;51.456;8.844;2023-04-24T04:20:00;1.67;;;0.90;;
23304;SDS011;11821;51.456;8.844;2023-04-24T04:22:29;0.70;;;0.70;;
23304;SDS011;11821;51.456;8.844;2023-04-24T04:24:59;1.48;;;1.35;;
23304;SDS011;11821;51.456;8.844;2023-04-24T04:27:26;1.60;;;1.20;;
23304;SDS011;11821;51.456;8.844;2023-04-24T04:30:01;2.92;;;1.10;;
23304;SDS011;11821;51.456;8.844;2023-04-24T04:32:34;1.98;;;0.90;;
23304;SDS011;11821;51.456;8.844;2023-04-24T04:35:02;2.17;;;0.80;;
23304;SDS011;11821;51.456;8.844;2023-04-24T04:37:30;0.60;;;0.60;;
23304;SDS011;11821;51.456;8.844;2023-04-24T04:40:08;0.85;;;0.85;;
23304;SDS011;11821;51.456;8.844;2023-04-24T04:42:47;0.55;;;0.55;;
23304;SDS011;11821;51.456;8.844;2023-04-24T04:45:14;2.70;;;0.70;;
23304;SDS011;11821;51.456;8.844;2023-04-24T04:47:59;0.55;;;0.52;;
23304;SDS011;11821;51.456;8.844;2023-04-24T04:50:26;1.45;;;1.20;;
23304;SDS011;11821;51.456;8.844;2023-04-24T04:52:59;1.55;;;1.17;;
23304;SDS011;11821;51.456;8.844;2023-04-24T04:55:31;0.50;;;0.50;;
23304;SDS011;11821;51.456;8.844;2023-04-24T04:58:18;1.00;;;0.88;;
23304;SDS011;11821;51.456;8.844;2023-04-24T05:00:48;1.40;;;0.90;;
23304;SDS011;11821;51.456;8.844;2023-04-24T05:03:31;1.13;;;0.77;;
23304;SDS011;11821;51.456;8.844;2023-04-24T05:06:05;1.35;;;0.77;;
23304;SDS011;11821;51.456;8.844;2023-04-24T05:08:35;3.03;;;0.80;;
23304;SDS011;11821;51.456;8.844;2023-04-24T05:11:03;1.08;;;1.08;;
23304;SDS011;11821;51.456;8.844;2023-04-24T05:13:31;1.42;;;0.95;;
23304;SDS011;11821;51.456;8.844;2023-04-24T05:15:59;1.73;;;1.00;;
23304;SDS011;11821;51.456;8.844;2023-04-24T05:18:26;3.60;;;1.10;;
23304;SDS011;11821;51.456;8.844;2023-04-24T05:20:53;1.52;;;1.23;;
23304;SDS011;11821;51.456;8.844;2023-04-24T05:23:20;3.15;;;1.75;;
23304;SDS011;11821;51.456;8.844;2023-04-24T05:25:50;3.20;;;1.77;;
23304;SDS011;11821;51.456;8.844;2023-04-24T05:28:18;6.05;;;2.13;;
23304;SDS011;11821;51.456;8.844;2023-04-24T05:30:54;1.83;;;1.67;;
23304;SDS011;11821;51.456;8.844;2023-04-24T05:33:23;2.20;;;2.00;;
23304;SDS011;11821;51.456;8.844;2023-04-24T05:35:49;2.03;;;1.90;;
23304;SDS011;11821;51.456;8.844;2023-04-24T05:38:16;3.55;;;2.45;;
23304;SDS011;11821;51.456;8.844;2023-04-24T05:40:45;2.53;;;2.33;;
23304;SDS011;11821;51.456;8.844;2023-04-24T05:43:12;3.55;;;2.63;;
23304;SDS011;11821;51.456;8.844;2023-04-24T05:45:39;2.60;;;2.40;;
23304;SDS011;11821;51.456;8.844;2023-04-24T05:48:05;4.05;;;3.00;;
23304;SDS011;11821;51.456;8.844;2023-04-24T05:50:32;3.22;;;2.53;;
23304;SDS011;11821;51.456;8.844;2023-04-24T05:52:59;2.40;;;2.20;;
23304;SDS011;11821;51.456;8.844;2023-04-24T05:55:32;2.55;;;2.20;;
23304;SDS011;11821;51.456;8.844;2023-04-24T05:57:59;3.45;;;3.00;;
23304;SDS011;11821;51.456;8.844;2023-04-24T06:00:26;2.83;;;2.42;;
23304;SDS011;11821;51.456;8.844;2023-04-24T06:03:00;3.35;;;3.03;;
23304;SDS011;11821;51.456;8.844;2023-04-24T06:05:27;4.65;;;3.35;;
23304;SDS011;11821;51.456;8.844;2023-04-24T06:07:53;6.47;;;4.50;;
23304;SDS011;11821;51.456;8.844;2023-04-24T06:10:22;4.25;;;3.70;;
23304;SDS011;11821;51.456;8.844;2023-04-24T06:12:49;4.20;;;3.75;;
23304;SDS011;11821;51.456;8.844;2023-04-24T06:15:17;3.85;;;3.55;;
23304;SDS011;11821;51.456;8.844;2023-04-24T06:17:52;4.28;;;3.35;;
23304;SDS011;11821;51.456;8.844;2023-04-24T06:20:20;4.05;;;3.70;;
23304;SDS011;11821;51.456;8.844;2023-04-24T06:22:46;4.88;;;3.80;;
23304;SDS011;11821;51.456;8.844;2023-04-24T06:25:13;6.20;;;3.67;;
23304;SDS011;11821;51.456;8.844;2023-04-24T06:27:40;4.38;;;3.53;;
23304;SDS011;11821;51.456;8.844;2023-04-24T06:30:07;4.03;;;3.63;;
23304;SDS011;11821;51.456;8.844;2023-04-24T06:32:34;4.13;;;3.75;;
23304;SDS011;11821;51.456;8.844;2023-04-24T06:35:01;4.03;;;3.65;;
23304;SDS011;11821;51.456;8.844;2023-04-24T06:37:27;3.83;;;3.53;;
23304;SDS011;11821;51.456;8.844;2023-04-24T06:39:54;4.32;;;3.92;;
23304;SDS011;11821;51.456;8.844;2023-04-24T06:42:20;4.45;;;4.05;;
23304;SDS011;11821;51.456;8.844;2023-04-24T06:44:49;3.50;;;3.20;;
23304;SDS011;11821;51.456;8.844;2023-04-24T06:47:15;4.20;;;3.80;;
23304;SDS011;11821;51.456;8.844;2023-04-24T06:49:42;3.47;;;3.15;;
23304;SDS011;11821;51.456;8.844;2023-04-24T06:52:09;4.00;;;3.60;;
23304;SDS011;11821;51.456;8.844;2023-04-24T06:54:35;3.97;;;3.53;;
23304;SDS011;11821;51.456;8.844;2023-04-24T06:57:02;3.65;;;3.35;;
23304;SDS011;11821;51.456;8.844;2023-04-24T06:59:29;3.30;;;3.00;;
23304;SDS011;11821;51.456;8.844;2023-04-24T07:01:56;3.78;;;3.25;;
23304;SDS011;11821;51.456;8.844;2023-04-24T07:04:22;3.80;;;2.97;;
23304;SDS011;11821;51.456;8.844;2023-04-24T07:06:50;4.07;;;3.67;;
23304;SDS011;11821;51.456;8.844;2023-04-24T07:09:17;4.03;;;3.15;;
23304;SDS011;11821;51.456;8.844;2023-04-24T07:11:44;4.38;;;2.85;;
23304;SDS011;11821;51.456;8.844;2023-04-24T07:14:11;3.28;;;2.97;;
23304;SDS011;11821;51.456;8.844;2023-04-24T07:16:38;2.83;;;2.30;;
23304;SDS011;11821;51.456;8.844;2023-04-24T07:19:04;3.25;;;2.55;;
23304;SDS011;11821;51.456;8.844;2023-04-24T07:21:31;3.17;;;2.92;;
23304;SDS011;11821;51.456;8.844;2023-04-24T07:23:58;3.40;;;2.28;;
23304;SDS011;11821;51.456;8.844;2023-04-24T07:26:25;4.30;;;2.75;;
23304;SDS011;11821;51.456;8.844;2023-04-24T07:28:52;2.65;;;2.15;;
23304;SDS011;11821;51.456;8.844;2023-04-24T07:31:18;2.05;;;1.85;;
23304;SDS011;11821;51.456;8.844;2023-04-24T07:33:45;5.05;;;2.67;;
23304;SDS011;11821;51.456;8.844;2023-04-24T07:36:12;2.92;;;2.38;;
23304;SDS011;11821;51.456;8.844;2023-04-24T07:38:42;3.00;;;2.22;;
23304;SDS011;11821;51.456;8.844;2023-04-24T07:41:09;2.50;;;2.30;;
23304;SDS011;11821;51.456;8.844;2023-04-24T07:43:35;3.85;;;2.28;;
23304;SDS011;11821;51.456;8.844;2023-04-24T07:46:02;2.20;;;2.10;;
23304;SDS011;11821;51.456;8.844;2023-04-24T07:48:28;3.17;;;2.55;;
23304;SDS011;11821;51.456;8.844;2023-04-24T07:50:55;2.17;;;2.08;;
23304;SDS011;11821;51.456;8.844;2023-04-24T07:53:21;2.42;;;2.20;;
23304;SDS011;11821;51.456;8.844;2023-04-24T07:55:47;3.33;;;2.30;;
23304;SDS011;11821;51.456;8.844;2023-04-24T07:58:14;2.38;;;2.17;;
23304;SDS011;11821;51.456;8.844;2023-04-24T08:00:40;2.45;;;2.17;;
23304;SDS011;11821;51.456;8.844;2023-04-24T08:03:07;2.25;;;1.70;;
23304;SDS011;11821;51.456;8.844;2023-04-24T08:05:33;2.40;;;2.20;;
23304;SDS011;11821;51.456;8.844;2023-04-24T08:07:59;2.00;;;1.80;;
23304;SDS011;11821;51.456;8.844;2023-04-24T08:10:26;1.77;;;1.52;;
23304;SDS011;11821;51.456;8.844;2023-04-24T08:12:52;1.75;;;1.65;;
23304;SDS011;11821;51.456;8.844;2023-04-24T08:15:18;2.00;;;1.70;;
23304;SDS011;11821;51.456;8.844;2023-04-24T08:17:44;3.58;;;1.92;;
23304;SDS011;11821;51.456;8.844;2023-04-24T08:20:11;2.13;;;1.80;;
23304;SDS011;11821;51.456;8.844;2023-04-24T08:22:41;3.00;;;1.42;;
23304;SDS011;11821;51.456;8.844;2023-04-24T08:25:09;1.83;;;1.50;;
23304;SDS011;11821;51.456;8.844;2023-04-24T08:27:36;1.35;;;1.25;;
23304;SDS011;11821;51.456;8.844;2023-04-24T08:30:03;1.73;;;1.42;;
23304;SDS011;11821;51.456;8.844;2023-04-24T08:32:30;1.73;;;1.63;;
23304;SDS011;11821;51.456;8.844;2023-04-24T08:34:57;1.25;;;1.05;;
23304;SDS011;11821;51.456;8.844;2023-04-24T08:37:24;2.35;;;1.10;;
23304;SDS011;11821;51.456;8.844;2023-04-24T08:39:51;1.40;;;1.30;;
23304;SDS011;11821;51.456;8.844;2023-04-24T08:42:18;4.38;;;2.33;;
23304;SDS011;11821;51.456;8.844;2023-04-24T08:44:46;2.05;;;1.63;;
23304;SDS011;11821;51.456;8.844;2023-04-24T08:47:15;1.73;;;1.60;;
23304;SDS011;11821;51.456;8.844;2023-04-24T08:49:41;2.25;;;1.67;;
23304;SDS011;11821;51.456;8.844;2023-04-24T08:52:08;2.45;;;1.35;;
23304;SDS011;11821;51.456;8.844;2023-04-24T08:54:35;1.77;;;1.50;;
23304;SDS011;11821;51.456;8.844;2023-04-24T08:57:02;1.30;;;1.20;;
23304;SDS011;11821;51.456;8.844;2023-04-24T08:59:30;1.35;;;1.23;;
23304;SDS011;11821;51.456;8.844;2023-04-24T09:01:57;1.25;;;0.82;;
23304;SDS011;11821;51.456;8.844;2023-04-24T09:04:24;1.08;;;1.00;;
23304;SDS011;11821;51.456;8.844;2023-04-24T09:06:52;1.08;;;1.08;;
23304;SDS011;11821;51.456;8.844;2023-04-24T09:09:22;1.33;;;1.00;;
23304;SDS011;11821;51.456;8.844;2023-04-24T09:11:50;2.25;;;1.17;;
23304;SDS011;11821;51.456;8.844;2023-04-24T09:14:19;1.90;;;1.10;;
23304;SDS011;11821;51.456;8.844;2023-04-24T09:16:46;1.05;;;0.98;;
23304;SDS011;11821;51.456;8.844;2023-04-24T09:19:13;1.10;;;0.85;;
23304;SDS011;11821;51.456;8.844;2023-04-24T09:21:39;1.70;;;0.80;;
23304;SDS011;11821;51.456;8.844;2023-04-24T09:24:08;0.98;;;0.93;;
23304;SDS011;11821;51.456;8.844;2023-04-24T09:26:43;1.25;;;0.82;;
23304;SDS011;11821;51.456;8.844;2023-04-24T09:29:14;0.70;;;0.50;;
23304;SDS011;11821;51.456;8.844;2023-04-24T09:31:42;1.15;;;0.70;;
23304;SDS011;11821;51.456;8.844;2023-04-24T09:34:10;0.70;;;0.70;;
23304;SDS011;11821;51.456;8.844;2023-04-24T09:36:40;1.23;;;0.70;;
23304;SDS011;11821;51.456;8.844;2023-04-24T09:39:09;0.63;;;0.55;;
23304;SDS011;11821;51.456;8.844;2023-04-24T09:44:12;0.40;;;0.40;;
23304;SDS011;11821;51.456;8.844;2023-04-24T09:46:40;1.15;;;0.40;;
23304;SDS011;11821;51.456;8.844;2023-04-24T09:49:23;0.30;;;0.30;;
23304;SDS011;11821;51.456;8.844;2023-04-24T09:52:02;0.40;;;0.40;;
23304;SDS011;11821;51.456;8.844;2023-04-24T09:54:36;0.50;;;0.50;;
23304;SDS011;11821;51.456;8.844;2023-04-24T09:57:03;0.95;;;0.40;;
23304;SDS011;11821;51.456;8.844;2023-04-24T09:59:30;0.40;;;0.40;;
23304;SDS011;11821;51.456;8.844;2023-04-24T10:01:56;0.30;;;0.30;;
23304;SDS011;11821;51.456;8.844;2023-04-24T10:04:25;0.63;;;0.47;;
23304;SDS011;11821;51.456;8.844;2023-04-24T10:06:53;0.32;;;0.30;;
23304;SDS011;11821;51.456;8.844;2023-04-24T10:09:22;1.98;;;0.35;;
23304;SDS011;11821;51.456;8.844;2023-04-24T10:11:53;0.20;;;0.20;;
23304;SDS011;11821;51.456;8.844;2023-04-24T10:14:20;1.95;;;0.20;;
23304;SDS011;11821;51.456;8.844;2023-04-24T10:16:49;0.30;;;0.30;;
23304;SDS011;11821;51.456;8.844;2023-04-24T10:19:18;0.38;;;0.20;;
23304;SDS011;11821;51.456;8.844;2023-04-24T10:21:44;1.15;;;0.20;;
23304;SDS011;11821;51.456;8.844;2023-04-24T10:24:17;0.88;;;0.20;;
23304;SDS011;11821;51.456;8.844;2023-04-24T10:26:47;0.10;;;0.10;;
23304;SDS011;11821;51.456;8.844;2023-04-24T10:29:15;0.20;;;0.20;;
23304;SDS011;11821;51.456;8.844;2023-04-24T10:31:43;0.30;;;0.20;;
23304;SDS011;11821;51.456;8.844;2023-04-24T10:34:13;0.10;;;0.10;;
23304;SDS011;11821;51.456;8.844;2023-04-24T10:36:43;0.73;;;0.10;;
23304;SDS011;11821;51.456;8.844;2023-04-24T10:39:13;0.10;;;0.10;;
23304;SDS011;11821;51.456;8.844;2023-04-24T10:41:41;0.10;;;0.10;;
23304;SDS011;11821;51.456;8.844;2023-04-24T10:46:35;0.80;;;0.60;;
23304;SDS011;11821;51.456;8.844;2023-04-24T10:49:06;1.65;;;0.22;;
23304;SDS011;11821;51.456;8.844;2023-04-24T10:51:47;0.40;;;0.20;;
23304;SDS011;11821;51.456;8.844;2023-04-24T10:54:48;0.30;;;0.10;;
23304;SDS011;11821;51.456;8.844;2023-04-24T10:59:44;0.38;;;0.38;;
23304;SDS011;11821;51.456;8.844;2023-04-24T11:02:11;0.40;;;0.40;;
23304;SDS011;11821;51.456;8.844;2023-04-24T11:04:44;0.45;;;0.15;;
23304;SDS011;11821;51.456;8.844;2023-04-24T11:07:13;0.10;;;0.10;;
23304;SDS011;11821;51.456;8.844;2023-04-24T11:09:39;0.10;;;0.10;;
23304;SDS011;11821;51.456;8.844;2023-04-24T11:12:09;0.10;;;0.10;;
23304;SDS011;11821;51.456;8.844;2023-04-24T11:17:31;0.10;;;0.10;;
23304;SDS011;11821;51.456;8.844;2023-04-24T11:22:38;0.15;;;0.05;;
23304;SDS011;11821;51.456;8.844;2023-04-24T11:25:08;0.10;;;0.10;;
23304;SDS011;11821;51.456;8.844;2023-04-24T11:30:11;0.17;;;0.13;;
23304;SDS011;11821;51.456;8.844;2023-04-24T11:32:38;1.77;;;0.20;;
23304;SDS011;11821;51.456;8.844;2023-04-24T11:37:38;0.63;;;0.20;;
23304;SDS011;11821;51.456;8.844;2023-04-24T11:40:07;0.15;;;0.10;;
23304;SDS011;11821;51.456;8.844;2023-04-24T11:42:38;0.40;;;0.20;;
23304;SDS011;11821;51.456;8.844;2023-04-24T11:45:10;0.28;;;0.28;;
23304;SDS011;11821;51.456;8.844;2023-04-24T11:47:45;0.70;;;0.28;;
23304;SDS011;11821;51.456;8.844;2023-04-24T11:50:12;0.30;;;0.30;;
23304;SDS011;11821;51.456;8.844;2023-04-24T11:52:41;1.65;;;0.20;;
23304;SDS011;11821;51.456;8.844;2023-04-24T11:57:48;0.20;;;0.20;;
23304;SDS011;11821;51.456;8.844;2023-04-24T12:00:16;0.20;;;0.20;;
23304;SDS011;11821;51.456;8.844;2023-04-24T12:03:11;0.10;;;0.10;;
23304;SDS011;11821;51.456;8.844;2023-04-24T12:05:38;1.13;;;0.10;;
23304;SDS011;11821;51.456;8.844;2023-04-24T12:08:05;0.40;;;0.10;;
23304;SDS011;11821;51.456;8.844;2023-04-24T12:10:32;0.30;;;0.10;;
23304;SDS011;11821;51.456;8.844;2023-04-24T12:12:59;0.20;;;0.13;;
23304;SDS011;11821;51.456;8.844;2023-04-24T12:15:26;0.25;;;0.20;;
23304;SDS011;11821;51.456;8.844;2023-04-24T12:17:52;0.10;;;0.10;;
23304;SDS011;11821;51.456;8.844;2023-04-24T12:20:27;0.30;;;0.30;;
23304;SDS011;11821;51.456;8.844;2023-04-24T12:22:58;0.10;;;0.10;;
23304;SDS011;11821;51.456;8.844;2023-04-24T12:25:27;0.20;;;0.20;;
23304;SDS011;11821;51.456;8.844;2023-04-24T12:27:54;0.22;;;0.20;;
23304;SDS011;11821;51.456;8.844;2023-04-24T12:30:54;0.20;;;0.20;;
23304;SDS011;11821;51.456;8.844;2023-04-24T12:33:21;0.55;;;0.30;;
23304;SDS011;11821;51.456;8.844;2023-04-24T12:35:48;0.47;;;0.30;;
23304;SDS011;11821;51.456;8.844;2023-04-24T12:38:21;0.40;;;0.20;;
23304;SDS011;11821;51.456;8.844;2023-04-24T12:40:58;0.40;;;0.35;;
23304;SDS011;11821;51.456;8.844;2023-04-24T12:43:27;0.52;;;0.35;;
23304;SDS011;11821;51.456;8.844;2023-04-24T12:45:53;0.30;;;0.30;;
23304;SDS011;11821;51.456;8.844;2023-04-24T12:48:20;0.30;;;0.30;;
23304;SDS011;11821;51.456;8.844;2023-04-24T12:50:48;1.17;;;0.30;;
23304;SDS011;11821;51.456;8.844;2023-04-24T12:53:14;0.55;;;0.45;;
23304;SDS011;11821;51.456;8.844;2023-04-24T12:55:41;0.88;;;0.50;;
23304;SDS011;11821;51.456;8.844;2023-04-24T12:58:08;0.60;;;0.57;;
23304;SDS011;11821;51.456;8.844;2023-04-24T13:00:34;1.35;;;0.75;;
23304;SDS011;11821;51.456;8.844;2023-04-24T13:03:00;1.38;;;0.90;;
23304;SDS011;11821;51.456;8.844;2023-04-24T13:05:27;1.05;;;0.90;;
23304;SDS011;11821;51.456;8.844;2023-04-24T13:07:53;1.77;;;0.85;;
23304;SDS011;11821;51.456;8.844;2023-04-24T13:10:20;1.95;;;0.90;;
23304;SDS011;11821;51.456;8.844;2023-04-24T13:12:46;1.98;;;1.05;;
23304;SDS011;11821;51.456;8.844;2023-04-24T13:15:12;1.25;;;1.15;;
23304;SDS011;11821;51.456;8.844;2023-04-24T13:17:39;1.67;;;1.13;;
23304;SDS011;11821;51.456;8.844;2023-04-24T13:20:05;2.58;;;1.40;;
23304;SDS011;11821;51.456;8.844;2023-04-24T13:22:32;1.98;;;1.80;;
23304;SDS011;11821;51.456;8.844;2023-04-24T13:24:58;3.05;;;1.70;;
23304;SDS011;11821;51.456;8.844;2023-04-24T13:27:25;3.78;;;1.90;;
23304;SDS011;11821;51.456;8.844;2023-04-24T13:29:51;3.63;;;2.10;;
23304;SDS011;11821;51.456;8.844;2023-04-24T13:32:17;5.20;;;2.10;;
23304;SDS011;11821;51.456;8.844;2023-04-24T13:34:44;4.63;;;2.20;;
23304;SDS011;11821;51.456;8.844;2023-04-24T13:37:10;4.38;;;2.42;;
23304;SDS011;11821;51.456;8.844;2023-04-24T13:39:36;3.08;;;2.58;;
23304;SDS011;11821;51.456;8.844;2023-04-24T13:42:03;2.40;;;2.20;;
23304;SDS011;11821;51.456;8.844;2023-04-24T13:44:29;4.35;;;2.70;;
23304;SDS011;11821;51.456;8.844;2023-04-24T13:46:57;3.20;;;2.70;;
23304;SDS011;11821;51.456;8.844;2023-04-24T13:49:24;3.28;;;2.83;;
23304;SDS011;11821;51.456;8.844;2023-04-24T13:51:52;4.50;;;3.35;;
23304;SDS011;11821;51.456;8.844;2023-04-24T13:54:19;7.90;;;3.47;;
23304;SDS011;11821;51.456;8.844;2023-04-24T13:56:45;6.25;;;3.40;;
23304;SDS011;11821;51.456;8.844;2023-04-24T13:59:12;6.68;;;2.80;;
23304;SDS011;11821;51.456;8.844;2023-04-24T14:01:38;3.70;;;2.80;;
23304;SDS011;11821;51.456;8.844;2023-04-24T14:04:05;6.32;;;2.95;;
23304;SDS011;11821;51.456;8.844;2023-04-24T14:06:31;4.13;;;3.72;;
23304;SDS011;11821;51.456;8.844;2023-04-24T14:08:58;4.75;;;3.55;;
23304;SDS011;11821;51.456;8.844;2023-04-24T14:11:24;5.20;;;3.03;;
23304;SDS011;11821;51.456;8.844;2023-04-24T14:13:52;3.35;;;2.70;;
23304;SDS011;11821;51.456;8.844;2023-04-24T14:16:19;5.32;;;2.50;;
23304;SDS011;11821;51.456;8.844;2023-04-24T14:18:46;5.53;;;2.88;;
23304;SDS011;11821;51.456;8.844;2023-04-24T14:21:13;5.45;;;2.78;;
23304;SDS011;11821;51.456;8.844;2023-04-24T14:23:39;3.63;;;2.63;;
23304;SDS011;11821;51.456;8.844;2023-04-24T14:26:05;4.95;;;2.92;;
23304;SDS011;11821;51.456;8.844;2023-04-24T14:28:32;5.50;;;2.60;;
23304;SDS011;11821;51.456;8.844;2023-04-24T14:30:58;6.15;;;3.03;;
23304;SDS011;11821;51.456;8.844;2023-04-24T14:33:24;5.05;;;2.75;;
23304;SDS011;11821;51.456;8.844;2023-04-24T14:35:50;5.47;;;3.30;;
23304;SDS011;11821;51.456;8.844;2023-04-24T14:38:17;5.28;;;3.42;;
23304;SDS011;11821;51.456;8.844;2023-04-24T14:40:44;5.15;;;3.00;;
23304;SDS011;11821;51.456;8.844;2023-04-24T14:43:11;6.93;;;4.78;;
23304;SDS011;11821;51.456;8.844;2023-04-24T14:45:37;4.53;;;3.05;;
23304;SDS011;11821;51.456;8.844;2023-04-24T14:48:05;6.47;;;3.45;;
23304;SDS011;11821;51.456;8.844;2023-04-24T14:50:32;6.47;;;4.15;;
23304;SDS011;11821;51.456;8.844;2023-04-24T14:52:58;5.18;;;3.50;;
23304;SDS011;11821;51.456;8.844;2023-04-24T14:55:25;5.50;;;3.25;;
23304;SDS011;11821;51.456;8.844;2023-04-24T14:57:52;5.78;;;3.35;;
23304;SDS011;11821;51.456;8.844;2023-04-24T15:00:18;6.38;;;4.03;;
23304;SDS011;11821;51.456;8.844;2023-04-24T15:02:45;5.05;;;3.17;;
23304;SDS011;11821;51.456;8.844;2023-04-24T15:05:12;6.72;;;2.97;;
23304;SDS011;11821;51.456;8.844;2023-04-24T15:07:38;6.78;;;3.42;;
23304;SDS011;11821;51.456;8.844;2023-04-24T15:10:07;5.35;;;3.10;;
23304;SDS011;11821;51.456;8.844;2023-04-24T15:12:34;5.60;;;3.60;;
23304;SDS011;11821;51.456;8.844;2023-04-24T15:15:00;7.07;;;2.67;;